createdAt,value
2022-12-23T00:00:14.139Z,4.8
2022-12-23T00:01:22.666Z,5.2
2022-12-23T00:02:31.077Z,5.2
2022-12-23T00:03:39.544Z,5.2
2022-12-23T00:04:47.905Z,3.7
2022-12-23T00:05:56.248Z,3.7
2022-12-23T00:07:04.542Z,3.7
2022-12-23T00:08:13.080Z,6.5
2022-12-23T00:09:21.393Z,6.5
2022-12-23T00:10:29.710Z,6.5
2022-12-23T00:11:38.252Z,4.7
2022-12-23T00:12:46.580Z,4.7
2022-12-23T00:13:54.920Z,4.7
2022-12-23T00:15:03.431Z,4.4
2022-12-23T00:16:11.802Z,4.4
2022-12-23T00:17:23.454Z,4.4
2022-12-23T00:18:28.629Z,5.6
2022-12-23T00:19:36.942Z,5.6
2022-12-23T00:20:45.253Z,5.6
2022-12-23T00:21:53.805Z,3.1
2022-12-23T00:23:02.105Z,3.1
2022-12-23T00:24:10.429Z,3.1
2022-12-23T00:25:18.945Z,3.9
2022-12-23T00:26:27.263Z,3.9
2022-12-23T00:27:37.625Z,3.9
2022-12-23T00:28:44.139Z,3.5
2022-12-23T00:29:52.445Z,3.5
2022-12-23T00:31:00.779Z,3.5
2022-12-23T00:32:09.366Z,1.3
2022-12-23T00:33:17.639Z,1.3
2022-12-23T00:34:25.954Z,1.3
2022-12-23T00:35:34.475Z,3.5
2022-12-23T00:36:42.878Z,3.5
2022-12-23T00:37:51.184Z,3.5
2022-12-23T00:38:59.655Z,2.1
2022-12-23T00:40:07.990Z,2.1
2022-12-23T00:41:16.309Z,2.1
2022-12-23T00:42:24.844Z,2.3
2022-12-23T00:43:33.165Z,2.3
2022-12-23T00:44:41.509Z,2.3
2022-12-23T00:45:50.047Z,2.4
2022-12-23T00:46:58.333Z,2.4
2022-12-23T00:48:06.647Z,2.4
2022-12-23T00:49:15.174Z,2.3
2022-12-23T00:50:23.495Z,2.3
2022-12-23T00:51:31.811Z,2.3
2022-12-23T00:52:40.344Z,2.7
2022-12-23T00:53:48.698Z,2.7
2022-12-23T00:54:56.988Z,2.7
2022-12-23T00:56:05.516Z,1
2022-12-23T00:57:13.846Z,1
2022-12-23T00:58:22.179Z,1
2022-12-23T00:59:30.700Z,1.3
2022-12-23T01:00:39.019Z,1.3
2022-12-23T01:01:47.517Z,1.3
2022-12-23T01:02:55.982Z,1.6
2022-12-23T01:04:04.224Z,1.6
2022-12-23T01:05:12.528Z,1.6
2022-12-23T01:06:21.051Z,0.8
2022-12-23T01:07:29.375Z,0.8
2022-12-23T01:08:37.686Z,0.8
2022-12-23T01:09:46.237Z,1.5
2022-12-23T01:10:54.537Z,1.5
2022-12-23T01:12:02.860Z,1.5
2022-12-23T01:13:11.399Z,0.9
2022-12-23T01:14:19.721Z,0.9
2022-12-23T01:15:28.048Z,0.9
2022-12-23T01:16:36.587Z,0.8
2022-12-23T01:17:44.897Z,0.8
2022-12-23T01:18:53.213Z,0.8
2022-12-23T01:20:01.727Z,1.1
2022-12-23T01:21:10.053Z,1.1
2022-12-23T01:22:18.380Z,1.1
2022-12-23T01:23:26.919Z,1.2
2022-12-23T01:24:35.232Z,1.2
2022-12-23T01:25:43.571Z,1.2
2022-12-23T01:26:52.090Z,0.7
2022-12-23T01:28:00.428Z,0.7
2022-12-23T01:29:08.731Z,0.7
2022-12-23T01:30:17.262Z,2.1
2022-12-23T01:31:25.580Z,2.1
2022-12-23T01:32:33.905Z,2.1
2022-12-23T01:33:42.401Z,1.1
2022-12-23T01:34:50.717Z,1.1
2022-12-23T01:35:59.032Z,1.1
2022-12-23T01:37:07.566Z,1.4
2022-12-23T01:38:15.886Z,1.4
2022-12-23T01:39:24.205Z,1.4
2022-12-23T01:40:32.739Z,1.1
2022-12-23T01:41:41.093Z,1.1
2022-12-23T01:42:49.389Z,1.1
2022-12-23T01:43:57.919Z,1.1
2022-12-23T01:45:06.234Z,1.1
2022-12-23T01:46:14.673Z,1.1
2022-12-23T01:47:23.091Z,0.8
2022-12-23T01:48:31.415Z,0.8
2022-12-23T01:49:39.736Z,0.8
2022-12-23T01:50:48.266Z,1.6
2022-12-23T01:51:56.588Z,1.6
2022-12-23T01:53:07.936Z,1.6
2022-12-23T01:54:13.436Z,2.3
2022-12-23T01:55:21.764Z,2.3
2022-12-23T01:56:30.063Z,2.3
2022-12-23T01:57:38.730Z,1.9
2022-12-23T01:58:46.918Z,1.9
2022-12-23T01:59:55.236Z,1.9
2022-12-23T02:01:03.893Z,1.8
2022-12-23T02:02:12.227Z,1.8
2022-12-23T02:03:20.461Z,1.8
2022-12-23T02:04:28.937Z,1.8
2022-12-23T02:05:37.251Z,1.8
2022-12-23T02:06:45.576Z,1.8
2022-12-23T02:07:54.105Z,1.3
2022-12-23T02:09:02.416Z,1.3
2022-12-23T02:10:10.725Z,1.3
2022-12-23T02:11:19.257Z,2.4
2022-12-23T02:12:27.597Z,2.4
2022-12-23T02:13:35.933Z,2.4
2022-12-23T02:14:44.424Z,1.3
2022-12-23T02:15:52.745Z,1.3
2022-12-23T02:17:01.173Z,1.3
2022-12-23T02:18:09.690Z,1.6
2022-12-23T02:19:17.979Z,1.6
2022-12-23T02:20:26.292Z,1.6
2022-12-23T02:21:34.812Z,1.6
2022-12-23T02:22:43.143Z,1.6
2022-12-23T02:23:51.463Z,1.6
2022-12-23T02:24:59.991Z,0.6
2022-12-23T02:26:08.326Z,0.6
2022-12-23T02:27:16.655Z,0.6
2022-12-23T02:28:25.203Z,1.1
2022-12-23T02:29:33.537Z,1.1
2022-12-23T02:30:41.903Z,1.1
2022-12-23T02:31:50.364Z,0.7
2022-12-23T02:32:58.695Z,0.7
2022-12-23T02:34:07.005Z,0.7
2022-12-23T02:35:15.532Z,1.4
2022-12-23T02:36:23.849Z,1.4
2022-12-23T02:37:32.157Z,1.4
2022-12-23T02:38:40.683Z,1.4
2022-12-23T02:39:49.005Z,1.4
2022-12-23T02:40:57.319Z,1.4
2022-12-23T02:42:05.857Z,0.9
2022-12-23T02:43:14.177Z,0.9
2022-12-23T02:44:22.497Z,0.9
2022-12-23T02:45:31.052Z,1.1
2022-12-23T02:46:39.407Z,1.1
2022-12-23T02:47:47.674Z,1.1
2022-12-23T02:48:56.195Z,1.5
2022-12-23T02:50:04.503Z,1.5
2022-12-23T02:51:12.834Z,1.5
2022-12-23T02:52:21.371Z,1.6
2022-12-23T02:53:29.677Z,1.6
2022-12-23T02:54:37.988Z,1.6
2022-12-23T02:55:46.508Z,1.1
2022-12-23T02:56:54.848Z,1.1
2022-12-23T02:58:03.160Z,1.1
2022-12-23T02:59:11.693Z,1.3
2022-12-23T03:00:19.994Z,1.3
2022-12-23T03:01:28.484Z,1.3
2022-12-23T03:02:37.058Z,2
2022-12-23T03:03:45.235Z,2
2022-12-23T03:04:53.496Z,2
2022-12-23T03:06:02.008Z,1.7
2022-12-23T03:07:13.745Z,1.7
2022-12-23T03:08:18.655Z,1.7
2022-12-23T03:09:27.171Z,2.5
2022-12-23T03:10:35.517Z,2.5
2022-12-23T03:11:43.823Z,2.5
2022-12-23T03:12:52.344Z,1.8
2022-12-23T03:14:00.668Z,1.8
2022-12-23T03:15:08.970Z,1.8
2022-12-23T03:16:17.542Z,0.9
2022-12-23T03:17:25.847Z,0.9
2022-12-23T03:18:34.172Z,0.9
2022-12-23T03:19:42.660Z,1.7
2022-12-23T03:20:50.993Z,1.7
2022-12-23T03:21:59.321Z,1.7
2022-12-23T03:23:07.867Z,1.5
2022-12-23T03:24:16.168Z,1.5
2022-12-23T03:25:24.533Z,1.5
2022-12-23T03:26:33.021Z,1.6
2022-12-23T03:27:41.346Z,1.6
2022-12-23T03:28:49.731Z,1.6
2022-12-23T03:29:58.189Z,0.7
2022-12-23T03:31:06.514Z,0.7
2022-12-23T03:32:14.834Z,0.7
2022-12-23T03:33:23.381Z,1.3
2022-12-23T03:34:31.662Z,1.3
2022-12-23T03:35:39.979Z,1.3
2022-12-23T03:36:48.534Z,1
2022-12-23T03:37:56.843Z,1
2022-12-23T03:39:05.156Z,1
2022-12-23T03:40:13.687Z,1.3
2022-12-23T03:41:21.997Z,1.3
2022-12-23T03:42:30.313Z,1.3
2022-12-23T03:43:38.836Z,1.6
2022-12-23T03:45:03.943Z,1.6
2022-12-23T03:45:55.523Z,1.6
2022-12-23T03:47:04.020Z,1.5
2022-12-23T03:48:12.342Z,1.5
2022-12-23T03:49:20.684Z,1.5
2022-12-23T03:50:29.206Z,1
2022-12-23T03:51:37.501Z,1
2022-12-23T03:52:45.831Z,1
2022-12-23T03:53:54.348Z,1.3
2022-12-23T03:55:02.661Z,1.3
2022-12-23T03:56:10.986Z,1.3
2022-12-23T03:57:19.509Z,0.4
2022-12-23T03:58:27.828Z,0.4
2022-12-23T03:59:36.147Z,0.4
2022-12-23T04:00:44.670Z,0.2
2022-12-23T04:01:53.149Z,0.2
2022-12-23T04:03:01.409Z,0.2
2022-12-23T04:04:09.856Z,0.8
2022-12-23T04:05:18.170Z,0.8
2022-12-23T04:06:26.481Z,0.8
2022-12-23T04:07:35.012Z,1.6
2022-12-23T04:08:43.332Z,1.6
2022-12-23T04:09:51.642Z,1.6
2022-12-23T04:11:00.167Z,0.4
2022-12-23T04:12:08.490Z,0.4
2022-12-23T04:13:16.812Z,0.4
2022-12-23T04:14:25.327Z,0.3
2022-12-23T04:15:33.667Z,0.3
2022-12-23T04:16:41.987Z,0.3
2022-12-23T04:17:50.500Z,0.2
2022-12-23T04:18:58.829Z,0.2
2022-12-23T04:20:07.139Z,0.2
2022-12-23T04:21:15.731Z,0.4
2022-12-23T04:22:23.996Z,0.4
2022-12-23T04:23:32.306Z,0.4
2022-12-23T04:24:40.859Z,0.2
2022-12-23T04:25:49.206Z,0.2
2022-12-23T04:26:57.532Z,0.2
2022-12-23T04:28:06.057Z,0.1
2022-12-23T04:29:14.364Z,0.1
2022-12-23T04:30:24.650Z,0.1
2022-12-23T04:31:31.234Z,0.3
2022-12-23T04:32:39.538Z,0.3
2022-12-23T04:33:47.846Z,0.3
2022-12-23T04:34:56.371Z,0.1
2022-12-23T04:36:04.699Z,0.1
2022-12-23T04:37:13.051Z,0.1
2022-12-23T04:38:21.545Z,0.2
2022-12-23T04:39:29.897Z,0.2
2022-12-23T04:40:38.204Z,0.2
2022-12-23T04:41:46.719Z,0.5
2022-12-23T04:42:55.054Z,0.5
2022-12-23T04:44:03.366Z,0.5
2022-12-23T04:45:11.876Z,0.3
2022-12-23T04:46:20.239Z,0.3
2022-12-23T04:47:28.522Z,0.3
2022-12-23T04:48:37.045Z,0.2
2022-12-23T04:49:45.373Z,0.2
2022-12-23T04:50:53.696Z,0.2
2022-12-23T04:52:02.234Z,0.4
2022-12-23T04:53:10.578Z,0.4
2022-12-23T04:54:18.874Z,0.4
2022-12-23T04:55:27.413Z,0.3
2022-12-23T04:56:35.698Z,0.3
2022-12-23T04:57:44.027Z,0.3
2022-12-23T04:58:52.566Z,0.4
2022-12-23T05:00:00.871Z,0.4
2022-12-23T05:01:09.247Z,0.4
2022-12-23T05:02:17.765Z,0.4
2022-12-23T05:03:26.065Z,0.4
2022-12-23T05:04:34.374Z,0.4
2022-12-23T05:05:42.858Z,0.6
2022-12-23T05:06:51.186Z,0.6
2022-12-23T05:07:59.492Z,0.6
2022-12-23T05:09:08.041Z,0.1
2022-12-23T05:10:16.355Z,0.1
2022-12-23T05:11:24.679Z,0.1
2022-12-23T05:12:33.222Z,0.3
2022-12-23T05:13:47.116Z,0.3
2022-12-23T05:14:55.491Z,0.3
2022-12-23T05:16:04.071Z,0.2
2022-12-23T05:17:12.357Z,0.2
2022-12-23T05:18:20.691Z,0.2
2022-12-23T05:19:29.203Z,0.2
2022-12-23T05:20:37.552Z,0.2
2022-12-23T05:21:45.883Z,0.2
2022-12-23T05:22:54.453Z,5
2022-12-23T05:24:02.776Z,5
2022-12-23T05:25:11.114Z,5
2022-12-23T05:26:19.616Z,0.5
2022-12-23T05:27:27.949Z,0.5
2022-12-23T05:28:36.251Z,0.5
2022-12-23T05:29:44.776Z,0.1
2022-12-23T05:30:53.093Z,0.1
2022-12-23T05:32:01.533Z,0.1
2022-12-23T05:33:09.986Z,0.4
2022-12-23T05:34:18.271Z,0.4
2022-12-23T05:35:26.585Z,0.4
2022-12-23T05:36:35.112Z,0.1
2022-12-23T05:37:43.435Z,0.1
2022-12-23T05:38:51.749Z,0.1
2022-12-23T05:40:00.310Z,0.1
2022-12-23T05:41:08.695Z,0.1
2022-12-23T05:42:17.020Z,0.1
2022-12-23T05:43:25.555Z,0
2022-12-23T05:44:33.883Z,0
2022-12-23T05:45:42.294Z,0
2022-12-23T05:46:50.744Z,0.2
2022-12-23T05:47:59.066Z,0.2
2022-12-23T05:49:07.375Z,0.2
2022-12-23T05:50:15.904Z,0.1
2022-12-23T05:51:24.239Z,0.1
2022-12-23T05:52:32.563Z,0.1
2022-12-23T05:53:41.124Z,267.70001
2022-12-23T05:54:49.419Z,267.70001
2022-12-23T05:55:57.766Z,267.70001
2022-12-23T05:57:06.310Z,1.7
2022-12-23T05:58:14.604Z,1.7
2022-12-23T05:59:26.454Z,1.7
2022-12-23T06:00:31.462Z,1
2022-12-23T06:01:39.868Z,1
2022-12-23T06:02:53.449Z,1
2022-12-23T06:03:56.700Z,3.6
2022-12-23T06:05:04.964Z,3.6
2022-12-23T06:06:13.297Z,3.6
2022-12-23T06:07:21.831Z,4.7
2022-12-23T06:08:30.161Z,4.7
2022-12-23T06:09:38.490Z,4.7
2022-12-23T06:10:47.014Z,5.7
2022-12-23T06:11:55.381Z,5.7
2022-12-23T06:13:03.766Z,5.7
2022-12-23T06:14:12.218Z,1.8
2022-12-23T06:15:20.553Z,1.8
2022-12-23T06:16:28.929Z,1.8
2022-12-23T06:17:37.418Z,1.5
2022-12-23T06:18:45.738Z,1.5
2022-12-23T06:19:54.089Z,1.5
2022-12-23T06:21:02.604Z,0.6
2022-12-23T06:22:10.939Z,0.6
2022-12-23T06:23:19.249Z,0.6
2022-12-23T06:24:27.793Z,1.1
2022-12-23T06:25:36.122Z,1.1
2022-12-23T06:26:44.447Z,1.1
2022-12-23T06:27:53.001Z,0.5
2022-12-23T06:29:01.377Z,0.5
2022-12-23T06:30:09.610Z,0.5
2022-12-23T06:31:18.198Z,0.2
2022-12-23T06:32:26.497Z,0.2
2022-12-23T06:33:34.815Z,0.2
2022-12-23T06:34:43.318Z,0.6
2022-12-23T06:35:51.650Z,0.6
2022-12-23T06:36:59.982Z,0.6
2022-12-23T06:38:11.962Z,0.5
2022-12-23T06:39:16.849Z,0.5
2022-12-23T06:40:25.180Z,0.5
2022-12-23T06:41:33.707Z,0.8
2022-12-23T06:42:42.045Z,0.8
2022-12-23T06:43:54.214Z,0.8
2022-12-23T06:44:58.955Z,1.7
2022-12-23T06:46:07.271Z,1.7
2022-12-23T06:47:15.583Z,1.7
2022-12-23T06:48:24.118Z,0.6
2022-12-23T06:49:32.461Z,0.6
2022-12-23T06:50:40.753Z,0.6
2022-12-23T06:51:49.292Z,1.3
2022-12-23T06:52:57.600Z,1.3
2022-12-23T06:54:05.921Z,1.3
2022-12-23T06:55:14.483Z,0.4
2022-12-23T06:56:22.771Z,0.4
2022-12-23T06:57:31.126Z,0.4
2022-12-23T06:58:39.657Z,0.3
2022-12-23T06:59:47.983Z,0.3
2022-12-23T07:00:56.372Z,0.3
2022-12-23T07:02:05.029Z,2.9
2022-12-23T07:03:13.352Z,2.9
2022-12-23T07:04:21.513Z,2.9
2022-12-23T07:05:36.643Z,7.3
2022-12-23T07:06:38.378Z,7.3
2022-12-23T07:07:46.705Z,7.3
2022-12-23T07:08:55.220Z,1.5
2022-12-23T07:10:03.565Z,1.5
2022-12-23T07:11:11.870Z,1.5
2022-12-23T07:12:20.416Z,1.7
2022-12-23T07:13:28.721Z,1.7
2022-12-23T07:14:37.046Z,1.7
2022-12-23T07:15:45.569Z,1.4
2022-12-23T07:16:54.094Z,1.4
2022-12-23T07:18:02.230Z,1.4
2022-12-23T07:19:10.772Z,2
2022-12-23T07:20:19.083Z,2
2022-12-23T07:21:29.653Z,2
2022-12-23T07:22:35.940Z,2.2
2022-12-23T07:23:44.255Z,2.2
2022-12-23T07:24:52.589Z,2.2
2022-12-23T07:26:01.132Z,2
2022-12-23T07:27:09.450Z,2
2022-12-23T07:28:17.769Z,2
2022-12-23T07:29:26.311Z,2.4
2022-12-23T07:30:34.654Z,2.4
2022-12-23T07:31:42.983Z,2.4
2022-12-23T07:32:51.528Z,3.3
2022-12-23T07:33:59.824Z,3.3
2022-12-23T07:35:08.159Z,3.3
2022-12-23T07:36:16.688Z,1.7
2022-12-23T07:37:25.031Z,1.7
2022-12-23T07:38:33.331Z,1.7
2022-12-23T07:39:41.883Z,1.2
2022-12-23T07:40:50.198Z,1.2
2022-12-23T07:42:16.906Z,1.2
2022-12-23T07:43:07.089Z,1.6
2022-12-23T07:44:15.408Z,1.6
2022-12-23T07:45:23.745Z,1.6
2022-12-23T07:46:32.377Z,0.9
2022-12-23T07:47:40.704Z,0.9
2022-12-23T07:48:49.050Z,0.9
2022-12-23T07:49:57.544Z,1.5
2022-12-23T07:51:05.856Z,1.5
2022-12-23T07:52:14.203Z,1.5
2022-12-23T07:53:22.744Z,1.1
2022-12-23T07:54:31.597Z,1.1
2022-12-23T07:55:39.925Z,1.1
2022-12-23T07:56:48.498Z,1.7
2022-12-23T07:57:56.815Z,1.7
2022-12-23T07:59:05.174Z,1.7
2022-12-23T08:00:13.858Z,2.3
2022-12-23T08:01:22.340Z,2.3
2022-12-23T08:02:30.818Z,2.3
2022-12-23T08:03:39.249Z,1.1
2022-12-23T08:04:47.584Z,1.1
2022-12-23T08:05:55.844Z,1.1
2022-12-23T08:07:04.382Z,1.4
2022-12-23T08:08:12.725Z,1.4
2022-12-23T08:09:21.059Z,1.4
2022-12-23T08:10:29.602Z,1.1
2022-12-23T08:11:37.929Z,1.1
2022-12-23T08:12:46.263Z,1.1
2022-12-23T08:13:54.803Z,2
2022-12-23T08:15:03.133Z,2
2022-12-23T08:16:11.502Z,2
2022-12-23T08:17:20.088Z,1.3
2022-12-23T08:18:28.353Z,1.3
2022-12-23T08:19:36.670Z,1.3
2022-12-23T08:20:45.240Z,0.8
2022-12-23T08:21:53.555Z,0.8
2022-12-23T08:23:01.871Z,0.8
2022-12-23T08:24:10.390Z,1.1
2022-12-23T08:25:18.712Z,1.1
2022-12-23T08:26:27.056Z,1.1
2022-12-23T08:27:35.614Z,1.1
2022-12-23T08:28:43.899Z,1.1
2022-12-23T08:29:52.213Z,1.1
2022-12-23T08:31:00.810Z,4.3
2022-12-23T08:32:09.091Z,4.3
2022-12-23T08:33:17.437Z,4.3
2022-12-23T08:34:25.981Z,1.3
2022-12-23T08:35:34.293Z,1.3
2022-12-23T08:36:42.653Z,1.3
2022-12-23T08:37:51.180Z,0.7
2022-12-23T08:38:59.510Z,0.7
2022-12-23T08:40:07.827Z,0.7
2022-12-23T08:41:16.348Z,1.4
2022-12-23T08:42:24.692Z,1.4
2022-12-23T08:43:35.927Z,1.4
2022-12-23T08:44:41.558Z,0.7
2022-12-23T08:45:49.929Z,0.7
2022-12-23T08:46:58.217Z,0.7
2022-12-23T08:48:06.747Z,1
2022-12-23T08:49:15.069Z,1
2022-12-23T08:50:23.406Z,1
2022-12-23T08:51:31.933Z,0.9
2022-12-23T08:52:40.280Z,0.9
2022-12-23T08:53:48.580Z,0.9
2022-12-23T08:54:57.105Z,0.6
2022-12-23T08:56:05.477Z,0.6
2022-12-23T08:57:16.069Z,0.6
2022-12-23T08:58:24.604Z,10.7
2022-12-23T08:59:32.925Z,10.7
2022-12-23T09:00:41.246Z,10.7
2022-12-23T09:01:49.905Z,4.4
2022-12-23T09:02:58.303Z,4.4
2022-12-23T09:04:06.459Z,4.4
2022-12-23T09:05:14.978Z,1.2
2022-12-23T09:06:28.499Z,1.2
2022-12-23T09:07:31.635Z,1.2
2022-12-23T09:08:40.204Z,0.9
2022-12-23T09:09:48.506Z,0.9
2022-12-23T09:10:56.829Z,0.9
2022-12-23T09:12:05.369Z,2.5
2022-12-23T09:13:18.029Z,2.5
2022-12-23T09:14:22.027Z,2.5
2022-12-23T09:15:30.601Z,5.2
2022-12-23T09:16:38.864Z,5.2
2022-12-23T09:17:47.185Z,5.2
2022-12-23T09:18:55.732Z,10.5
2022-12-23T09:20:04.037Z,10.5
2022-12-23T09:21:12.366Z,10.5
2022-12-23T09:22:20.905Z,5.4
2022-12-23T09:23:29.231Z,5.4
2022-12-23T09:24:37.697Z,5.4
2022-12-23T09:25:46.095Z,7.3
2022-12-23T09:26:54.433Z,7.3
2022-12-23T09:28:02.775Z,7.3
2022-12-23T09:29:11.304Z,3
2022-12-23T09:30:19.632Z,3
2022-12-23T09:31:34.270Z,3
2022-12-23T09:32:36.495Z,2.3
2022-12-23T09:33:44.812Z,2.3
2022-12-23T09:34:53.125Z,2.3
2022-12-23T09:36:01.665Z,2.1
2022-12-23T09:37:09.995Z,2.1
2022-12-23T09:38:18.337Z,2.1
2022-12-23T09:39:26.862Z,1.4
2022-12-23T09:40:35.195Z,1.4
2022-12-23T09:41:43.500Z,1.4
2022-12-23T09:42:52.046Z,1.4
2022-12-23T09:44:00.393Z,1.4
2022-12-23T09:45:08.692Z,1.4
2022-12-23T09:46:17.224Z,1.1
2022-12-23T09:47:25.568Z,1.1
2022-12-23T09:48:33.883Z,1.1
2022-12-23T09:49:42.420Z,0.5
2022-12-23T09:50:50.722Z,0.5
2022-12-23T09:51:59.062Z,0.5
2022-12-23T09:53:07.585Z,1.4
2022-12-23T09:54:17.239Z,1.4
2022-12-23T09:55:24.249Z,1.4
2022-12-23T09:56:32.793Z,1.2
2022-12-23T09:57:41.097Z,1.2
2022-12-23T09:58:49.437Z,1.2
2022-12-23T09:59:57.970Z,1.2
2022-12-23T10:01:06.287Z,1.2
2022-12-23T10:02:14.749Z,1.2
2022-12-23T10:03:23.303Z,0.9
2022-12-23T10:04:31.531Z,0.9
2022-12-23T10:05:39.772Z,0.9
2022-12-23T10:06:48.316Z,1.5
2022-12-23T10:07:56.654Z,1.5
2022-12-23T10:09:04.961Z,1.5
2022-12-23T10:10:13.494Z,0.9
2022-12-23T10:11:21.812Z,0.9
2022-12-23T10:12:32.922Z,0.9
2022-12-23T10:13:38.666Z,1.8
2022-12-23T10:14:46.982Z,1.8
2022-12-23T10:15:55.328Z,1.8
2022-12-23T10:17:03.843Z,1.8
2022-12-23T10:18:12.168Z,1.8
2022-12-23T10:19:20.487Z,1.8
2022-12-23T10:20:29.023Z,1.5
2022-12-23T10:21:39.201Z,1.5
2022-12-23T10:22:45.668Z,1.5
2022-12-23T10:23:54.212Z,3.8
2022-12-23T10:25:02.519Z,3.8
2022-12-23T10:26:10.854Z,3.8
2022-12-23T10:27:19.392Z,1
2022-12-23T10:28:29.498Z,1
2022-12-23T10:29:36.013Z,1
2022-12-23T10:31:10.834Z,1.4
2022-12-23T10:31:52.953Z,1.4
2022-12-23T10:33:01.198Z,1.4
2022-12-23T10:34:09.744Z,1.9
2022-12-23T10:35:18.074Z,1.9
2022-12-23T10:36:26.401Z,1.9
2022-12-23T10:37:34.919Z,1.4
2022-12-23T10:38:43.262Z,1.4
2022-12-23T10:39:51.580Z,1.4
2022-12-23T10:41:03.752Z,1.7
2022-12-23T10:42:08.432Z,1.7
2022-12-23T10:43:16.757Z,1.7
2022-12-23T10:44:25.308Z,0.9
2022-12-23T10:45:33.611Z,0.9
2022-12-23T10:46:41.994Z,0.9
2022-12-23T10:47:50.500Z,1.5
2022-12-23T10:48:58.796Z,1.5
2022-12-23T10:50:07.145Z,1.5
2022-12-23T10:51:15.653Z,2.2
2022-12-23T10:52:23.963Z,2.2
2022-12-23T10:53:32.296Z,2.2
2022-12-23T10:54:40.818Z,1.5
2022-12-23T10:55:49.127Z,1.5
2022-12-23T10:56:57.457Z,1.5
2022-12-23T10:58:05.986Z,1.3
2022-12-23T10:59:14.319Z,1.3
2022-12-23T11:00:22.707Z,1.3
2022-12-23T11:01:31.389Z,1.6
2022-12-23T11:02:39.682Z,1.6
2022-12-23T11:03:47.811Z,1.6
2022-12-23T11:04:56.336Z,1.7
2022-12-23T11:06:04.641Z,1.7
2022-12-23T11:08:21.523Z,1.5
2022-12-23T11:09:29.846Z,1.5
2022-12-23T11:10:38.166Z,1.5
2022-12-23T11:11:46.691Z,2
2022-12-23T11:12:55.043Z,2
2022-12-23T11:14:03.404Z,2
2022-12-23T11:15:11.917Z,2
2022-12-23T11:16:20.357Z,2
2022-12-23T11:17:28.579Z,2
2022-12-23T11:18:41.833Z,6.1
2022-12-23T11:19:45.428Z,6.1
2022-12-23T11:20:53.749Z,6.1
2022-12-23T11:22:02.293Z,2.6
2022-12-23T11:23:10.618Z,2.6
2022-12-23T11:24:18.941Z,2.6
2022-12-23T11:25:27.478Z,2.7
2022-12-23T11:26:35.802Z,2.7
2022-12-23T11:27:44.183Z,2.7
2022-12-23T11:28:52.664Z,2.1
2022-12-23T11:30:00.973Z,2.1
2022-12-23T11:31:09.371Z,2.1
2022-12-23T11:32:17.986Z,7.9
2022-12-23T11:33:26.145Z,7.9
2022-12-23T11:34:34.455Z,7.9
2022-12-23T11:35:43.004Z,12.4
2022-12-23T11:36:54.556Z,12.4
2022-12-23T11:37:59.634Z,12.4
2022-12-23T11:39:08.173Z,4.6
2022-12-23T11:40:16.514Z,4.6
2022-12-23T11:41:24.849Z,4.6
2022-12-23T11:42:33.398Z,3.6
2022-12-23T11:43:41.707Z,3.6
2022-12-23T11:44:50.033Z,3.6
2022-12-23T11:45:58.577Z,4.6
2022-12-23T11:47:06.907Z,4.6
2022-12-23T11:48:15.265Z,4.6
2022-12-23T11:49:23.798Z,3
2022-12-23T11:50:32.123Z,3
2022-12-23T11:51:40.436Z,3
2022-12-23T11:52:48.995Z,3
2022-12-23T11:53:57.314Z,3
2022-12-23T11:55:05.647Z,3
2022-12-23T11:56:14.197Z,2.8
2022-12-23T11:57:22.544Z,2.8
2022-12-23T11:58:30.861Z,2.8
2022-12-23T11:59:39.402Z,3.2
2022-12-23T12:00:52.043Z,3.2
2022-12-23T12:01:56.112Z,3.2
2022-12-23T12:03:04.663Z,5.3
2022-12-23T12:04:12.971Z,5.3
2022-12-23T12:05:21.280Z,5.3
2022-12-23T12:06:29.807Z,2.3
2022-12-23T12:07:38.191Z,2.3
2022-12-23T12:08:46.528Z,2.3
2022-12-23T12:09:55.074Z,9.5
2022-12-23T12:11:03.399Z,9.5
2022-12-23T12:12:11.738Z,9.5
2022-12-23T12:13:20.296Z,8.1
2022-12-23T12:14:28.608Z,8.1
2022-12-23T12:15:36.938Z,8.1
2022-12-23T12:16:45.533Z,8.1
2022-12-23T12:17:53.797Z,8.1
2022-12-23T12:19:02.120Z,8.1
2022-12-23T12:20:10.803Z,5.4
2022-12-23T12:21:18.983Z,5.4
2022-12-23T12:22:27.313Z,5.4
2022-12-23T12:23:35.865Z,3.2
2022-12-23T12:24:44.189Z,3.2
2022-12-23T12:25:52.518Z,3.2
2022-12-23T12:27:01.066Z,1.5
2022-12-23T12:28:09.396Z,1.5
2022-12-23T12:29:17.733Z,1.5
2022-12-23T12:30:26.313Z,2.7
2022-12-23T12:31:34.607Z,2.7
2022-12-23T12:32:42.947Z,2.7
2022-12-23T12:33:51.501Z,4.9
2022-12-23T12:34:59.822Z,4.9
2022-12-23T12:36:08.243Z,4.9
2022-12-23T12:37:16.720Z,4.7
2022-12-23T12:38:25.043Z,4.7
2022-12-23T12:39:33.339Z,4.7
2022-12-23T12:40:41.892Z,5.6
2022-12-23T12:41:50.212Z,5.6
2022-12-23T12:42:58.539Z,5.6
2022-12-23T12:44:07.070Z,1.8
2022-12-23T12:45:15.409Z,1.8
2022-12-23T12:46:23.809Z,1.8
2022-12-23T12:48:40.609Z,5
2022-12-23T12:49:48.925Z,5
2022-12-23T12:50:57.471Z,2.3
2022-12-23T12:52:05.854Z,2.3
2022-12-23T12:53:14.164Z,2.3
2022-12-23T12:54:22.708Z,2.5
2022-12-23T12:55:31.037Z,2.5
2022-12-23T12:56:39.373Z,2.5
2022-12-23T12:57:47.910Z,3.9
2022-12-23T12:58:56.241Z,3.9
2022-12-23T13:00:06.645Z,3.9
2022-12-23T13:01:13.187Z,3.1
2022-12-23T13:02:21.466Z,3.1
2022-12-23T13:03:29.792Z,3.1
2022-12-23T13:04:38.336Z,4.9
2022-12-23T13:05:51.785Z,4.9
2022-12-23T13:06:55.033Z,4.9
2022-12-23T13:08:03.578Z,3.5
2022-12-23T13:09:11.894Z,3.5
2022-12-23T13:10:20.214Z,3.5
2022-12-23T13:11:28.910Z,3.5
2022-12-23T13:12:37.170Z,3.5
2022-12-23T13:13:45.525Z,3.5
2022-12-23T13:14:54.079Z,1.3
2022-12-23T13:16:02.419Z,1.3
2022-12-23T13:17:10.798Z,1.3
2022-12-23T13:18:19.343Z,2.1
2022-12-23T13:19:27.673Z,2.1
2022-12-23T13:20:35.997Z,2.1
2022-12-23T13:21:44.549Z,3.1
2022-12-23T13:22:52.864Z,3.1
2022-12-23T13:24:04.028Z,3.1
2022-12-23T13:25:09.769Z,12.4
2022-12-23T13:26:18.126Z,12.4
2022-12-23T13:27:26.447Z,12.4
2022-12-23T13:28:35.027Z,4.1
2022-12-23T13:29:43.356Z,4.1
2022-12-23T13:30:51.764Z,4.1
2022-12-23T13:32:00.323Z,3.4
2022-12-23T13:33:08.677Z,3.4
2022-12-23T13:34:16.972Z,3.4
2022-12-23T13:35:25.516Z,5
2022-12-23T13:36:33.904Z,5
2022-12-23T13:37:42.182Z,5
2022-12-23T13:38:50.718Z,4.8
2022-12-23T13:39:59.066Z,4.8
2022-12-23T13:41:07.357Z,4.8
2022-12-23T13:42:15.954Z,4.8
2022-12-23T13:43:24.255Z,4.8
2022-12-23T13:44:32.590Z,4.8
2022-12-23T13:45:41.122Z,2
2022-12-23T13:46:49.487Z,2
2022-12-23T13:48:02.774Z,2
2022-12-23T13:49:06.334Z,2
2022-12-23T13:50:14.705Z,2
2022-12-23T13:51:22.992Z,2
2022-12-23T13:52:31.563Z,2.3
2022-12-23T13:53:39.917Z,2.3
2022-12-23T13:54:48.236Z,2.3
2022-12-23T13:55:56.844Z,1.4
2022-12-23T13:57:05.127Z,1.4
2022-12-23T13:58:13.464Z,1.4
2022-12-23T13:59:22.027Z,1.8
2022-12-23T14:00:30.335Z,1.8
2022-12-23T14:01:38.720Z,1.8
2022-12-23T14:02:47.294Z,2.1
2022-12-23T14:03:55.562Z,2.1
2022-12-23T14:05:03.890Z,2.1
2022-12-23T14:06:12.433Z,1.1
2022-12-23T14:07:20.772Z,1.1
2022-12-23T14:08:29.125Z,1.1
2022-12-23T14:09:37.670Z,3
2022-12-23T14:10:46.013Z,3
2022-12-23T14:11:55.468Z,3
2022-12-23T14:13:02.872Z,1.5
2022-12-23T14:14:11.209Z,1.5
2022-12-23T14:15:19.563Z,1.5
2022-12-23T14:16:28.162Z,1.8
2022-12-23T14:17:36.428Z,1.8
2022-12-23T14:18:44.755Z,1.8
2022-12-23T14:19:53.284Z,1.7
2022-12-23T14:21:01.622Z,1.7
2022-12-23T14:22:09.970Z,1.7
2022-12-23T14:23:18.504Z,1.4
2022-12-23T14:24:26.855Z,1.4
2022-12-23T14:25:35.177Z,1.4
2022-12-23T14:26:43.712Z,1.7
2022-12-23T14:27:52.082Z,1.7
2022-12-23T14:29:00.392Z,1.7
2022-12-23T14:30:09.113Z,1.6
2022-12-23T15:03:36.893Z,0
2022-12-23T15:04:45.199Z,0
2022-12-23T15:05:53.569Z,0
2022-12-23T15:07:02.128Z,1.5
2022-12-23T15:08:10.494Z,1.5
2022-12-23T15:09:18.835Z,1.5
2022-12-23T15:10:27.389Z,2.1
2022-12-23T15:11:35.732Z,2.1
2022-12-23T15:12:44.090Z,2.1
2022-12-23T15:13:52.636Z,1.9
2022-12-23T15:15:00.964Z,1.9
2022-12-23T15:16:09.392Z,1.9
2022-12-23T15:17:17.901Z,1.6
2022-12-23T15:18:26.232Z,1.6
2022-12-23T15:19:34.595Z,1.6
2022-12-23T15:20:43.119Z,1.1
2022-12-23T15:21:58.304Z,1.1
2022-12-23T15:22:59.818Z,1.1
2022-12-23T15:24:08.371Z,3.3
2022-12-23T15:25:16.696Z,3.3
2022-12-23T15:26:25.039Z,3.3
2022-12-23T15:27:33.598Z,2.7
2022-12-23T15:28:41.954Z,2.7
2022-12-23T15:29:50.305Z,2.7
2022-12-23T15:30:58.875Z,2.1
2022-12-23T15:32:07.220Z,2.1
2022-12-23T15:33:35.352Z,2.1
2022-12-23T15:34:24.195Z,2.4
2022-12-23T15:35:32.490Z,2.4
2022-12-23T15:36:40.837Z,2.4
2022-12-23T15:37:49.356Z,4.1
2022-12-23T15:38:57.711Z,4.1
2022-12-23T15:40:12.458Z,4.1
2022-12-23T15:41:14.619Z,2.6
2022-12-23T15:42:23.016Z,2.6
2022-12-23T15:43:31.358Z,2.6
2022-12-23T15:44:39.894Z,3
2022-12-23T15:45:48.234Z,3
2022-12-23T15:46:56.619Z,3
2022-12-23T15:48:05.152Z,2.5
2022-12-23T15:49:13.487Z,2.5
2022-12-23T15:50:21.832Z,2.5
2022-12-23T15:51:58.141Z,1.6
2022-12-23T15:52:38.746Z,1.6
2022-12-23T15:53:47.087Z,1.6
2022-12-23T15:54:55.634Z,1.6
2022-12-23T15:56:03.980Z,1.6
2022-12-23T15:57:12.338Z,1.6
2022-12-23T15:58:20.901Z,5.5
2022-12-23T15:59:29.244Z,5.5
2022-12-23T16:00:37.582Z,5.5
2022-12-23T16:01:46.228Z,7.1
2022-12-23T16:03:03.855Z,7.1
2022-12-23T16:04:03.001Z,7.1
2022-12-23T16:05:11.399Z,2.3
2022-12-23T16:06:19.740Z,2.3
2022-12-23T16:07:28.119Z,2.3
2022-12-23T16:08:36.631Z,2.6
2022-12-23T16:09:44.982Z,2.6
2022-12-23T16:10:53.331Z,2.6
2022-12-23T16:12:01.905Z,1.7
2022-12-23T16:13:10.231Z,1.7
2022-12-23T16:14:18.566Z,1.7
2022-12-23T16:15:27.113Z,1.8
2022-12-23T16:16:35.503Z,1.8
2022-12-23T16:17:43.828Z,1.8
2022-12-23T16:18:52.383Z,2.6
2022-12-23T16:20:00.710Z,2.6